sensor_id;sensor_type;location;lat;lon;timestamp;P1;durP1;ratioP1;P2;durP2;ratioP2
42840;SDS011;28491;46.898;7.660;2023-07-30T00:01:28;5.30;;;2.00;;
42840;SDS011;28491;46.898;7.660;2023-07-30T00:03:53;2.95;;;2.00;;
42840;SDS011;28491;46.898;7.660;2023-07-30T00:06:19;6.97;;;2.20;;
42840;SDS011;28491;46.898;7.660;2023-07-30T00:08:44;2.85;;;1.90;;
42840;SDS011;28491;46.898;7.660;2023-07-30T00:11:10;6.55;;;1.95;;
42840;SDS011;28491;46.898;7.660;2023-07-30T00:13:35;3.55;;;2.22;;
42840;SDS011;28491;46.898;7.660;2023-07-30T00:16:01;4.65;;;2.28;;
42840;SDS011;28491;46.898;7.660;2023-07-30T00:18:27;2.92;;;1.58;;
42840;SDS011;28491;46.898;7.660;2023-07-30T00:20:52;3.03;;;1.85;;
42840;SDS011;28491;46.898;7.660;2023-07-30T00:23:18;6.63;;;2.30;;
42840;SDS011;28491;46.898;7.660;2023-07-30T00:25:43;5.00;;;2.15;;
42840;SDS011;28491;46.898;7.660;2023-07-30T00:28:09;3.70;;;2.10;;
42840;SDS011;28491;46.898;7.660;2023-07-30T00:30:34;3.60;;;2.30;;
42840;SDS011;28491;46.898;7.660;2023-07-30T00:33:00;4.07;;;2.03;;
42840;SDS011;28491;46.898;7.660;2023-07-30T00:35:25;2.97;;;1.92;;
42840;SDS011;28491;46.898;7.660;2023-07-30T00:37:51;4.18;;;2.10;;
42840;SDS011;28491;46.898;7.660;2023-07-30T00:40:17;3.25;;;2.30;;
42840;SDS011;28491;46.898;7.660;2023-07-30T00:42:43;3.35;;;2.08;;
42840;SDS011;28491;46.898;7.660;2023-07-30T00:45:09;5.80;;;2.17;;
42840;SDS011;28491;46.898;7.660;2023-07-30T00:47:35;4.28;;;2.95;;
42840;SDS011;28491;46.898;7.660;2023-07-30T00:50:02;5.88;;;2.13;;
42840;SDS011;28491;46.898;7.660;2023-07-30T00:52:28;2.72;;;2.00;;
42840;SDS011;28491;46.898;7.660;2023-07-30T00:54:56;3.05;;;1.83;;
42840;SDS011;28491;46.898;7.660;2023-07-30T00:57:22;3.88;;;2.15;;
42840;SDS011;28491;46.898;7.660;2023-07-30T00:59:48;4.13;;;1.95;;
42840;SDS011;28491;46.898;7.660;2023-07-30T01:02:15;3.67;;;2.30;;
42840;SDS011;28491;46.898;7.660;2023-07-30T01:04:41;4.85;;;2.28;;
42840;SDS011;28491;46.898;7.660;2023-07-30T01:07:07;5.32;;;1.95;;
42840;SDS011;28491;46.898;7.660;2023-07-30T01:09:33;4.00;;;2.38;;
42840;SDS011;28491;46.898;7.660;2023-07-30T01:11:59;4.75;;;2.38;;
42840;SDS011;28491;46.898;7.660;2023-07-30T01:14:26;6.03;;;2.47;;
42840;SDS011;28491;46.898;7.660;2023-07-30T01:16:52;4.03;;;2.17;;
42840;SDS011;28491;46.898;7.660;2023-07-30T01:19:18;4.53;;;2.25;;
42840;SDS011;28491;46.898;7.660;2023-07-30T01:21:44;3.58;;;2.58;;
42840;SDS011;28491;46.898;7.660;2023-07-30T01:24:09;3.25;;;1.80;;
42840;SDS011;28491;46.898;7.660;2023-07-30T01:26:40;4.85;;;1.98;;
42840;SDS011;28491;46.898;7.660;2023-07-30T01:29:14;5.60;;;2.25;;
42840;SDS011;28491;46.898;7.660;2023-07-30T01:31:47;3.85;;;2.35;;
42840;SDS011;28491;46.898;7.660;2023-07-30T01:34:17;3.63;;;2.05;;
42840;SDS011;28491;46.898;7.660;2023-07-30T01:36:44;3.83;;;2.15;;
42840;SDS011;28491;46.898;7.660;2023-07-30T01:39:10;3.88;;;2.78;;
42840;SDS011;28491;46.898;7.660;2023-07-30T01:41:36;4.45;;;2.25;;
42840;SDS011;28491;46.898;7.660;2023-07-30T01:44:02;4.07;;;1.98;;
42840;SDS011;28491;46.898;7.660;2023-07-30T01:46:28;6.43;;;3.33;;
42840;SDS011;28491;46.898;7.660;2023-07-30T01:48:53;3.40;;;2.40;;
42840;SDS011;28491;46.898;7.660;2023-07-30T01:51:19;3.55;;;2.10;;
42840;SDS011;28491;46.898;7.660;2023-07-30T01:53:44;4.18;;;2.75;;
42840;SDS011;28491;46.898;7.660;2023-07-30T01:56:10;6.60;;;2.47;;
42840;SDS011;28491;46.898;7.660;2023-07-30T01:58:35;3.70;;;2.45;;
42840;SDS011;28491;46.898;7.660;2023-07-30T02:01:01;6.60;;;2.03;;
42840;SDS011;28491;46.898;7.660;2023-07-30T02:03:26;5.43;;;2.55;;
42840;SDS011;28491;46.898;7.660;2023-07-30T02:05:52;4.82;;;2.40;;
42840;SDS011;28491;46.898;7.660;2023-07-30T02:08:18;3.90;;;2.20;;
42840;SDS011;28491;46.898;7.660;2023-07-30T02:10:43;4.20;;;3.17;;
42840;SDS011;28491;46.898;7.660;2023-07-30T02:13:09;9.43;;;2.65;;
42840;SDS011;28491;46.898;7.660;2023-07-30T02:15:34;5.10;;;2.17;;
42840;SDS011;28491;46.898;7.660;2023-07-30T02:18:05;3.35;;;2.20;;
42840;SDS011;28491;46.898;7.660;2023-07-30T02:20:31;3.10;;;2.30;;
42840;SDS011;28491;46.898;7.660;2023-07-30T02:22:56;3.35;;;2.38;;
42840;SDS011;28491;46.898;7.660;2023-07-30T02:25:22;3.33;;;2.22;;
42840;SDS011;28491;46.898;7.660;2023-07-30T02:27:47;5.20;;;2.15;;
42840;SDS011;28491;46.898;7.660;2023-07-30T02:30:13;3.13;;;2.30;;
42840;SDS011;28491;46.898;7.660;2023-07-30T02:32:38;3.13;;;1.98;;
42840;SDS011;28491;46.898;7.660;2023-07-30T02:35:04;3.42;;;2.20;;
42840;SDS011;28491;46.898;7.660;2023-07-30T02:37:30;4.25;;;2.35;;
42840;SDS011;28491;46.898;7.660;2023-07-30T02:39:55;3.35;;;1.92;;
42840;SDS011;28491;46.898;7.660;2023-07-30T02:42:21;4.25;;;2.20;;
42840;SDS011;28491;46.898;7.660;2023-07-30T02:44:46;3.10;;;2.08;;
42840;SDS011;28491;46.898;7.660;2023-07-30T02:47:12;3.75;;;2.15;;
42840;SDS011;28491;46.898;7.660;2023-07-30T02:49:37;4.00;;;2.20;;
42840;SDS011;28491;46.898;7.660;2023-07-30T02:52:03;4.70;;;2.38;;
42840;SDS011;28491;46.898;7.660;2023-07-30T02:54:29;2.97;;;2.05;;
42840;SDS011;28491;46.898;7.660;2023-07-30T02:56:54;8.27;;;2.47;;
42840;SDS011;28491;46.898;7.660;2023-07-30T02:59:20;4.07;;;2.63;;
42840;SDS011;28491;46.898;7.660;2023-07-30T03:01:45;3.42;;;2.10;;
42840;SDS011;28491;46.898;7.660;2023-07-30T03:04:11;3.22;;;2.35;;
42840;SDS011;28491;46.898;7.660;2023-07-30T03:06:36;3.55;;;2.10;;
42840;SDS011;28491;46.898;7.660;2023-07-30T03:09:02;3.70;;;2.08;;
42840;SDS011;28491;46.898;7.660;2023-07-30T03:11:28;3.85;;;2.00;;
42840;SDS011;28491;46.898;7.660;2023-07-30T03:13:53;5.00;;;2.47;;
42840;SDS011;28491;46.898;7.660;2023-07-30T03:16:19;2.83;;;2.10;;
42840;SDS011;28491;46.898;7.660;2023-07-30T03:18:44;3.08;;;2.30;;
42840;SDS011;28491;46.898;7.660;2023-07-30T03:21:10;4.22;;;2.38;;
42840;SDS011;28491;46.898;7.660;2023-07-30T03:23:35;3.65;;;2.45;;
42840;SDS011;28491;46.898;7.660;2023-07-30T03:26:01;2.80;;;1.88;;
42840;SDS011;28491;46.898;7.660;2023-07-30T03:28:26;2.97;;;2.10;;
42840;SDS011;28491;46.898;7.660;2023-07-30T03:30:52;3.92;;;2.13;;
42840;SDS011;28491;46.898;7.660;2023-07-30T03:33:18;3.85;;;2.20;;
42840;SDS011;28491;46.898;7.660;2023-07-30T03:35:43;7.18;;;2.10;;
42840;SDS011;28491;46.898;7.660;2023-07-30T03:38:09;4.25;;;2.38;;
42840;SDS011;28491;46.898;7.660;2023-07-30T03:40:34;5.55;;;2.30;;
42840;SDS011;28491;46.898;7.660;2023-07-30T03:43:00;4.97;;;1.98;;
42840;SDS011;28491;46.898;7.660;2023-07-30T03:45:25;4.38;;;2.55;;
42840;SDS011;28491;46.898;7.660;2023-07-30T03:47:51;3.50;;;2.45;;
42840;SDS011;28491;46.898;7.660;2023-07-30T03:50:17;3.95;;;2.25;;
42840;SDS011;28491;46.898;7.660;2023-07-30T03:52:42;3.30;;;2.28;;
42840;SDS011;28491;46.898;7.660;2023-07-30T03:55:08;4.47;;;2.40;;
42840;SDS011;28491;46.898;7.660;2023-07-30T03:57:33;4.35;;;3.00;;
42840;SDS011;28491;46.898;7.660;2023-07-30T03:59:59;5.25;;;2.53;;
42840;SDS011;28491;46.898;7.660;2023-07-30T04:02:25;3.70;;;2.72;;
42840;SDS011;28491;46.898;7.660;2023-07-30T04:04:51;4.40;;;2.35;;
42840;SDS011;28491;46.898;7.660;2023-07-30T04:07:16;3.80;;;2.38;;
42840;SDS011;28491;46.898;7.660;2023-07-30T04:09:42;4.45;;;3.13;;
42840;SDS011;28491;46.898;7.660;2023-07-30T04:12:07;5.00;;;3.15;;
42840;SDS011;28491;46.898;7.660;2023-07-30T04:14:33;4.13;;;2.13;;
42840;SDS011;28491;46.898;7.660;2023-07-30T04:16:58;5.03;;;2.70;;
42840;SDS011;28491;46.898;7.660;2023-07-30T04:19:24;5.68;;;2.83;;
42840;SDS011;28491;46.898;7.660;2023-07-30T04:21:50;4.03;;;2.80;;
42840;SDS011;28491;46.898;7.660;2023-07-30T04:24:16;3.85;;;2.05;;
42840;SDS011;28491;46.898;7.660;2023-07-30T04:26:41;3.05;;;2.30;;
42840;SDS011;28491;46.898;7.660;2023-07-30T04:29:07;3.25;;;2.20;;
42840;SDS011;28491;46.898;7.660;2023-07-30T04:31:33;3.78;;;2.55;;
42840;SDS011;28491;46.898;7.660;2023-07-30T04:33:58;4.30;;;3.25;;
42840;SDS011;28491;46.898;7.660;2023-07-30T04:36:24;4.88;;;2.92;;
42840;SDS011;28491;46.898;7.660;2023-07-30T04:38:49;7.72;;;3.40;;
42840;SDS011;28491;46.898;7.660;2023-07-30T04:41:15;4.05;;;2.88;;
42840;SDS011;28491;46.898;7.660;2023-07-30T04:43:44;3.95;;;2.67;;
42840;SDS011;28491;46.898;7.660;2023-07-30T04:46:10;4.33;;;2.43;;
42840;SDS011;28491;46.898;7.660;2023-07-30T04:48:36;4.07;;;2.35;;
42840;SDS011;28491;46.898;7.660;2023-07-30T04:51:02;4.05;;;2.60;;
42840;SDS011;28491;46.898;7.660;2023-07-30T04:53:28;4.47;;;2.50;;
42840;SDS011;28491;46.898;7.660;2023-07-30T04:55:57;3.72;;;2.42;;
42840;SDS011;28491;46.898;7.660;2023-07-30T04:58:24;6.75;;;3.83;;
42840;SDS011;28491;46.898;7.660;2023-07-30T05:00:50;3.70;;;2.80;;
42840;SDS011;28491;46.898;7.660;2023-07-30T05:03:15;3.85;;;2.67;;
42840;SDS011;28491;46.898;7.660;2023-07-30T05:05:41;2.97;;;2.08;;
42840;SDS011;28491;46.898;7.660;2023-07-30T05:08:07;4.25;;;2.38;;
42840;SDS011;28491;46.898;7.660;2023-07-30T05:10:32;5.53;;;2.50;;
42840;SDS011;28491;46.898;7.660;2023-07-30T05:12:58;4.25;;;2.50;;
42840;SDS011;28491;46.898;7.660;2023-07-30T05:15:24;6.10;;;2.85;;
42840;SDS011;28491;46.898;7.660;2023-07-30T05:17:49;3.88;;;2.88;;
42840;SDS011;28491;46.898;7.660;2023-07-30T05:20:15;3.72;;;2.55;;
42840;SDS011;28491;46.898;7.660;2023-07-30T05:22:41;3.17;;;2.40;;
42840;SDS011;28491;46.898;7.660;2023-07-30T05:25:07;2.85;;;2.30;;
42840;SDS011;28491;46.898;7.660;2023-07-30T05:27:32;4.78;;;3.13;;
42840;SDS011;28491;46.898;7.660;2023-07-30T05:29:58;4.60;;;2.55;;
42840;SDS011;28491;46.898;7.660;2023-07-30T05:32:25;3.70;;;2.00;;
42840;SDS011;28491;46.898;7.660;2023-07-30T05:34:50;6.25;;;2.55;;
42840;SDS011;28491;46.898;7.660;2023-07-30T05:37:16;3.90;;;2.10;;
42840;SDS011;28491;46.898;7.660;2023-07-30T05:39:41;4.00;;;2.58;;
42840;SDS011;28491;46.898;7.660;2023-07-30T05:42:07;4.95;;;2.85;;
42840;SDS011;28491;46.898;7.660;2023-07-30T05:44:35;3.78;;;2.80;;
42840;SDS011;28491;46.898;7.660;2023-07-30T05:47:00;5.43;;;3.00;;
42840;SDS011;28491;46.898;7.660;2023-07-30T05:49:26;4.40;;;3.20;;
42840;SDS011;28491;46.898;7.660;2023-07-30T05:51:51;4.30;;;2.72;;
42840;SDS011;28491;46.898;7.660;2023-07-30T05:54:17;3.53;;;2.33;;
42840;SDS011;28491;46.898;7.660;2023-07-30T05:56:43;3.63;;;2.40;;
42840;SDS011;28491;46.898;7.660;2023-07-30T05:59:08;3.72;;;2.65;;
42840;SDS011;28491;46.898;7.660;2023-07-30T06:01:34;3.90;;;2.08;;
42840;SDS011;28491;46.898;7.660;2023-07-30T06:04:00;5.40;;;2.58;;
42840;SDS011;28491;46.898;7.660;2023-07-30T06:06:25;4.07;;;2.55;;
42840;SDS011;28491;46.898;7.660;2023-07-30T06:08:54;3.03;;;1.90;;
42840;SDS011;28491;46.898;7.660;2023-07-30T06:11:22;4.13;;;2.80;;
42840;SDS011;28491;46.898;7.660;2023-07-30T06:13:48;3.55;;;2.70;;
42840;SDS011;28491;46.898;7.660;2023-07-30T06:16:14;3.83;;;2.80;;
42840;SDS011;28491;46.898;7.660;2023-07-30T06:18:40;4.72;;;2.72;;
42840;SDS011;28491;46.898;7.660;2023-07-30T06:21:05;5.10;;;2.50;;
42840;SDS011;28491;46.898;7.660;2023-07-30T06:23:31;4.25;;;2.42;;
42840;SDS011;28491;46.898;7.660;2023-07-30T06:25:56;5.13;;;2.53;;
42840;SDS011;28491;46.898;7.660;2023-07-30T06:28:22;4.60;;;2.10;;
42840;SDS011;28491;46.898;7.660;2023-07-30T06:30:48;4.80;;;2.40;;
42840;SDS011;28491;46.898;7.660;2023-07-30T06:33:14;2.78;;;1.75;;
42840;SDS011;28491;46.898;7.660;2023-07-30T06:35:40;3.80;;;2.10;;
42840;SDS011;28491;46.898;7.660;2023-07-30T06:38:06;4.78;;;2.95;;
42840;SDS011;28491;46.898;7.660;2023-07-30T06:40:33;3.15;;;2.00;;
42840;SDS011;28491;46.898;7.660;2023-07-30T06:42:59;3.03;;;2.05;;
42840;SDS011;28491;46.898;7.660;2023-07-30T06:45:24;3.67;;;2.58;;
42840;SDS011;28491;46.898;7.660;2023-07-30T06:47:50;3.72;;;1.80;;
42840;SDS011;28491;46.898;7.660;2023-07-30T06:50:15;3.47;;;1.80;;
42840;SDS011;28491;46.898;7.660;2023-07-30T06:52:41;3.90;;;2.13;;
42840;SDS011;28491;46.898;7.660;2023-07-30T06:55:06;3.67;;;2.35;;
42840;SDS011;28491;46.898;7.660;2023-07-30T06:57:32;2.90;;;1.80;;
42840;SDS011;28491;46.898;7.660;2023-07-30T06:59:58;3.33;;;1.70;;
42840;SDS011;28491;46.898;7.660;2023-07-30T07:02:23;2.63;;;1.67;;
42840;SDS011;28491;46.898;7.660;2023-07-30T07:04:49;3.25;;;1.83;;
42840;SDS011;28491;46.898;7.660;2023-07-30T07:07:15;2.90;;;1.77;;
42840;SDS011;28491;46.898;7.660;2023-07-30T07:09:41;2.63;;;1.75;;
42840;SDS011;28491;46.898;7.660;2023-07-30T07:12:06;3.95;;;2.00;;
42840;SDS011;28491;46.898;7.660;2023-07-30T07:14:32;3.30;;;2.20;;
42840;SDS011;28491;46.898;7.660;2023-07-30T07:16:58;3.30;;;2.03;;
42840;SDS011;28491;46.898;7.660;2023-07-30T07:19:23;4.07;;;1.85;;
42840;SDS011;28491;46.898;7.660;2023-07-30T07:21:49;2.90;;;1.60;;
42840;SDS011;28491;46.898;7.660;2023-07-30T07:24:15;2.33;;;1.70;;
42840;SDS011;28491;46.898;7.660;2023-07-30T07:26:41;3.10;;;2.00;;
42840;SDS011;28491;46.898;7.660;2023-07-30T07:29:06;2.75;;;1.83;;
42840;SDS011;28491;46.898;7.660;2023-07-30T07:31:32;3.00;;;2.03;;
42840;SDS011;28491;46.898;7.660;2023-07-30T07:33:58;3.80;;;1.95;;
42840;SDS011;28491;46.898;7.660;2023-07-30T07:36:26;6.40;;;2.20;;
42840;SDS011;28491;46.898;7.660;2023-07-30T07:38:58;3.10;;;1.90;;
42840;SDS011;28491;46.898;7.660;2023-07-30T07:41:24;2.85;;;2.00;;
42840;SDS011;28491;46.898;7.660;2023-07-30T07:43:51;3.30;;;2.05;;
42840;SDS011;28491;46.898;7.660;2023-07-30T07:46:18;3.00;;;1.98;;
42840;SDS011;28491;46.898;7.660;2023-07-30T07:48:47;2.80;;;1.77;;
42840;SDS011;28491;46.898;7.660;2023-07-30T07:51:13;2.60;;;1.73;;
42840;SDS011;28491;46.898;7.660;2023-07-30T07:53:39;3.88;;;1.92;;
42840;SDS011;28491;46.898;7.660;2023-07-30T07:56:04;3.05;;;1.95;;
42840;SDS011;28491;46.898;7.660;2023-07-30T07:58:35;2.88;;;1.88;;
42840;SDS011;28491;46.898;7.660;2023-07-30T08:01:01;3.80;;;1.80;;
42840;SDS011;28491;46.898;7.660;2023-07-30T08:03:29;4.55;;;1.90;;
42840;SDS011;28491;46.898;7.660;2023-07-30T08:05:55;3.63;;;1.80;;
42840;SDS011;28491;46.898;7.660;2023-07-30T08:08:20;4.00;;;2.10;;
42840;SDS011;28491;46.898;7.660;2023-07-30T08:10:46;2.13;;;1.20;;
42840;SDS011;28491;46.898;7.660;2023-07-30T08:13:13;2.22;;;1.50;;
42840;SDS011;28491;46.898;7.660;2023-07-30T08:15:54;2.20;;;1.30;;
42840;SDS011;28491;46.898;7.660;2023-07-30T08:18:25;2.08;;;1.25;;
42840;SDS011;28491;46.898;7.660;2023-07-30T08:20:54;5.53;;;1.95;;
42840;SDS011;28491;46.898;7.660;2023-07-30T08:23:20;2.10;;;1.40;;
42840;SDS011;28491;46.898;7.660;2023-07-30T08:25:45;2.03;;;1.45;;
42840;SDS011;28491;46.898;7.660;2023-07-30T08:28:12;1.90;;;1.13;;
42840;SDS011;28491;46.898;7.660;2023-07-30T08:30:37;1.27;;;0.95;;
42840;SDS011;28491;46.898;7.660;2023-07-30T08:33:03;3.17;;;1.30;;
42840;SDS011;28491;46.898;7.660;2023-07-30T08:35:32;2.00;;;1.20;;
42840;SDS011;28491;46.898;7.660;2023-07-30T08:37:57;2.00;;;1.30;;
42840;SDS011;28491;46.898;7.660;2023-07-30T08:40:23;1.92;;;1.15;;
42840;SDS011;28491;46.898;7.660;2023-07-30T08:42:50;1.92;;;1.30;;
42840;SDS011;28491;46.898;7.660;2023-07-30T08:45:16;1.42;;;1.15;;
42840;SDS011;28491;46.898;7.660;2023-07-30T08:47:46;1.98;;;1.38;;
42840;SDS011;28491;46.898;7.660;2023-07-30T09:13:22;1.45;;;1.08;;
42840;SDS011;28491;46.898;7.660;2023-07-30T09:15:51;1.52;;;0.98;;
42840;SDS011;28491;46.898;7.660;2023-07-30T09:18:17;2.25;;;1.58;;
42840;SDS011;28491;46.898;7.660;2023-07-30T09:20:45;1.95;;;1.10;;
42840;SDS011;28491;46.898;7.660;2023-07-30T09:26:12;1.48;;;1.08;;
42840;SDS011;28491;46.898;7.660;2023-07-30T09:29:18;1.95;;;1.20;;
42840;SDS011;28491;46.898;7.660;2023-07-30T09:32:04;1.42;;;1.05;;
42840;SDS011;28491;46.898;7.660;2023-07-30T10:19:44;1.52;;;1.15;;
42840;SDS011;28491;46.898;7.660;2023-07-30T10:24:55;2.20;;;1.27;;
42840;SDS011;28491;46.898;7.660;2023-07-30T10:27:26;2.90;;;1.48;;
42840;SDS011;28491;46.898;7.660;2023-07-30T10:30:10;1.83;;;1.15;;
42840;SDS011;28491;46.898;7.660;2023-07-30T10:38:19;2.03;;;1.25;;
42840;SDS011;28491;46.898;7.660;2023-07-30T10:43:45;2.72;;;1.48;;
42840;SDS011;28491;46.898;7.660;2023-07-30T10:46:29;2.13;;;0.90;;
42840;SDS011;28491;46.898;7.660;2023-07-30T10:48:58;2.08;;;1.40;;
42840;SDS011;28491;46.898;7.660;2023-07-30T10:51:39;1.75;;;1.20;;
42840;SDS011;28491;46.898;7.660;2023-07-30T10:54:07;2.20;;;1.90;;
42840;SDS011;28491;46.898;7.660;2023-07-30T10:56:34;3.30;;;1.48;;
42840;SDS011;28491;46.898;7.660;2023-07-30T10:59:14;2.85;;;1.83;;
42840;SDS011;28491;46.898;7.660;2023-07-30T11:01:41;1.83;;;1.15;;
42840;SDS011;28491;46.898;7.660;2023-07-30T11:04:11;1.88;;;1.00;;
42840;SDS011;28491;46.898;7.660;2023-07-30T11:06:48;1.98;;;1.33;;
42840;SDS011;28491;46.898;7.660;2023-07-30T11:09:18;1.52;;;1.20;;
42840;SDS011;28491;46.898;7.660;2023-07-30T11:11:45;4.13;;;1.38;;
42840;SDS011;28491;46.898;7.660;2023-07-30T11:14:15;1.73;;;1.15;;
42840;SDS011;28491;46.898;7.660;2023-07-30T11:17:02;1.83;;;1.15;;
42840;SDS011;28491;46.898;7.660;2023-07-30T11:19:27;2.40;;;1.13;;
42840;SDS011;28491;46.898;7.660;2023-07-30T11:21:54;2.90;;;1.60;;
42840;SDS011;28491;46.898;7.660;2023-07-30T11:24:34;3.88;;;1.50;;
42840;SDS011;28491;46.898;7.660;2023-07-30T11:27:03;1.73;;;1.20;;
42840;SDS011;28491;46.898;7.660;2023-07-30T11:29:29;1.92;;;1.50;;
42840;SDS011;28491;46.898;7.660;2023-07-30T11:31:55;2.03;;;1.40;;
42840;SDS011;28491;46.898;7.660;2023-07-30T11:34:24;2.90;;;1.70;;
42840;SDS011;28491;46.898;7.660;2023-07-30T11:36:51;2.55;;;1.30;;
42840;SDS011;28491;46.898;7.660;2023-07-30T11:39:27;3.33;;;1.45;;
42840;SDS011;28491;46.898;7.660;2023-07-30T11:44:41;3.50;;;1.30;;
42840;SDS011;28491;46.898;7.660;2023-07-30T11:47:08;3.28;;;1.55;;
42840;SDS011;28491;46.898;7.660;2023-07-30T11:53:29;1.77;;;1.60;;
42840;SDS011;28491;46.898;7.660;2023-07-30T11:59:53;1.48;;;1.13;;
42840;SDS011;28491;46.898;7.660;2023-07-30T12:02:24;2.53;;;1.38;;
42840;SDS011;28491;46.898;7.660;2023-07-30T12:05:31;1.60;;;1.00;;
42840;SDS011;28491;46.898;7.660;2023-07-30T12:08:16;2.47;;;1.33;;
42840;SDS011;28491;46.898;7.660;2023-07-30T12:10:44;2.50;;;1.50;;
42840;SDS011;28491;46.898;7.660;2023-07-30T12:13:21;3.03;;;1.15;;
42840;SDS011;28491;46.898;7.660;2023-07-30T12:15:53;1.92;;;1.20;;
42840;SDS011;28491;46.898;7.660;2023-07-30T12:18:26;2.63;;;1.30;;
42840;SDS011;28491;46.898;7.660;2023-07-30T12:20:54;2.30;;;1.60;;
42840;SDS011;28491;46.898;7.660;2023-07-30T12:23:20;2.70;;;1.60;;
42840;SDS011;28491;46.898;7.660;2023-07-30T12:25:50;1.63;;;1.20;;
42840;SDS011;28491;46.898;7.660;2023-07-30T12:31:34;1.75;;;1.35;;
42840;SDS011;28491;46.898;7.660;2023-07-30T12:34:00;1.63;;;1.20;;
42840;SDS011;28491;46.898;7.660;2023-07-30T12:36:27;1.75;;;1.40;;
42840;SDS011;28491;46.898;7.660;2023-07-30T12:38:56;2.35;;;1.48;;
42840;SDS011;28491;46.898;7.660;2023-07-30T13:39:35;2.00;;;1.42;;
42840;SDS011;28491;46.898;7.660;2023-07-30T13:44:57;2.60;;;1.58;;
42840;SDS011;28491;46.898;7.660;2023-07-30T13:47:23;2.40;;;1.42;;
42840;SDS011;28491;46.898;7.660;2023-07-30T13:49:48;2.75;;;1.40;;
42840;SDS011;28491;46.898;7.660;2023-07-30T13:52:14;3.42;;;1.67;;
42840;SDS011;28491;46.898;7.660;2023-07-30T13:54:40;1.85;;;1.13;;
42840;SDS011;28491;46.898;7.660;2023-07-30T13:57:07;4.82;;;1.30;;
42840;SDS011;28491;46.898;7.660;2023-07-30T13:59:32;5.80;;;1.65;;
42840;SDS011;28491;46.898;7.660;2023-07-30T14:01:58;2.75;;;1.40;;
42840;SDS011;28491;46.898;7.660;2023-07-30T14:04:24;2.47;;;1.60;;
42840;SDS011;28491;46.898;7.660;2023-07-30T14:06:49;3.17;;;1.40;;
42840;SDS011;28491;46.898;7.660;2023-07-30T14:09:16;1.70;;;1.10;;
42840;SDS011;28491;46.898;7.660;2023-07-30T14:14:29;2.83;;;1.48;;
42840;SDS011;28491;46.898;7.660;2023-07-30T14:16:55;2.38;;;1.30;;
42840;SDS011;28491;46.898;7.660;2023-07-30T14:19:21;2.25;;;1.40;;
42840;SDS011;28491;46.898;7.660;2023-07-30T14:21:46;2.75;;;1.33;;
42840;SDS011;28491;46.898;7.660;2023-07-30T14:24:12;2.40;;;1.42;;
42840;SDS011;28491;46.898;7.660;2023-07-30T14:26:37;1.75;;;1.10;;
42840;SDS011;28491;46.898;7.660;2023-07-30T14:29:04;2.97;;;1.55;;
42840;SDS011;28491;46.898;7.660;2023-07-30T14:31:32;2.45;;;1.50;;
42840;SDS011;28491;46.898;7.660;2023-07-30T14:33:58;2.88;;;1.40;;
42840;SDS011;28491;46.898;7.660;2023-07-30T14:36:26;2.95;;;1.42;;
42840;SDS011;28491;46.898;7.660;2023-07-30T14:38:54;3.13;;;1.65;;
42840;SDS011;28491;46.898;7.660;2023-07-30T14:41:20;2.83;;;1.60;;
42840;SDS011;28491;46.898;7.660;2023-07-30T14:43:46;2.13;;;1.40;;
42840;SDS011;28491;46.898;7.660;2023-07-30T14:46:14;1.88;;;1.10;;
42840;SDS011;28491;46.898;7.660;2023-07-30T14:48:40;1.85;;;1.05;;
42840;SDS011;28491;46.898;7.660;2023-07-30T14:51:07;2.47;;;1.15;;
42840;SDS011;28491;46.898;7.660;2023-07-30T14:57:14;2.60;;;1.50;;
42840;SDS011;28491;46.898;7.660;2023-07-30T15:00:06;2.00;;;1.30;;
42840;SDS011;28491;46.898;7.660;2023-07-30T15:06:20;2.15;;;1.30;;
42840;SDS011;28491;46.898;7.660;2023-07-30T15:08:59;1.90;;;1.13;;
42840;SDS011;28491;46.898;7.660;2023-07-30T15:11:30;1.95;;;1.35;;
42840;SDS011;28491;46.898;7.660;2023-07-30T15:14:07;1.90;;;1.10;;
42840;SDS011;28491;46.898;7.660;2023-07-30T15:16:56;1.92;;;1.20;;
42840;SDS011;28491;46.898;7.660;2023-07-30T15:19:24;3.33;;;1.58;;
42840;SDS011;28491;46.898;7.660;2023-07-30T15:21:54;2.67;;;1.02;;
42840;SDS011;28491;46.898;7.660;2023-07-30T15:24:28;3.45;;;1.42;;
42840;SDS011;28491;46.898;7.660;2023-07-30T15:26:56;2.25;;;1.23;;
42840;SDS011;28491;46.898;7.660;2023-07-30T15:29:48;3.60;;;1.40;;
42840;SDS011;28491;46.898;7.660;2023-07-30T15:35:47;1.60;;;1.13;;
42840;SDS011;28491;46.898;7.660;2023-07-30T15:38:39;2.10;;;1.38;;
42840;SDS011;28491;46.898;7.660;2023-07-30T15:41:23;2.78;;;1.10;;
42840;SDS011;28491;46.898;7.660;2023-07-30T15:50:18;1.80;;;1.20;;
42840;SDS011;28491;46.898;7.660;2023-07-30T16:06:13;2.35;;;1.00;;
42840;SDS011;28491;46.898;7.660;2023-07-30T16:08:38;3.13;;;1.15;;
42840;SDS011;28491;46.898;7.660;2023-07-30T16:11:08;1.58;;;0.90;;
42840;SDS011;28491;46.898;7.660;2023-07-30T16:13:41;6.28;;;1.42;;
42840;SDS011;28491;46.898;7.660;2023-07-30T17:23:52;1.98;;;1.20;;
42840;SDS011;28491;46.898;7.660;2023-07-30T17:26:26;1.85;;;1.00;;
42840;SDS011;28491;46.898;7.660;2023-07-30T17:29:00;3.22;;;1.23;;
42840;SDS011;28491;46.898;7.660;2023-07-30T17:32:01;5.07;;;1.20;;
42840;SDS011;28491;46.898;7.660;2023-07-30T17:34:20;2.00;;;1.20;;
42840;SDS011;28491;46.898;7.660;2023-07-30T17:36:49;2.45;;;1.40;;
42840;SDS011;28491;46.898;7.660;2023-07-30T17:39:14;3.40;;;1.50;;
42840;SDS011;28491;46.898;7.660;2023-07-30T17:41:43;3.75;;;1.52;;
42840;SDS011;28491;46.898;7.660;2023-07-30T17:44:14;3.60;;;1.40;;
42840;SDS011;28491;46.898;7.660;2023-07-30T17:49:43;2.13;;;1.25;;
42840;SDS011;28491;46.898;7.660;2023-07-30T17:52:23;2.65;;;1.42;;
42840;SDS011;28491;46.898;7.660;2023-07-30T17:55:00;2.00;;;1.20;;
42840;SDS011;28491;46.898;7.660;2023-07-30T17:57:33;1.90;;;1.05;;
42840;SDS011;28491;46.898;7.660;2023-07-30T18:00:02;3.28;;;1.27;;
42840;SDS011;28491;46.898;7.660;2023-07-30T18:02:28;3.42;;;1.20;;
42840;SDS011;28491;46.898;7.660;2023-07-30T18:04:54;3.72;;;1.55;;
42840;SDS011;28491;46.898;7.660;2023-07-30T18:07:19;2.67;;;1.30;;
42840;SDS011;28491;46.898;7.660;2023-07-30T18:09:51;2.33;;;1.52;;
42840;SDS011;28491;46.898;7.660;2023-07-30T20:28:50;3.03;;;1.58;;
42840;SDS011;28491;46.898;7.660;2023-07-30T20:31:16;2.88;;;1.45;;
42840;SDS011;28491;46.898;7.660;2023-07-30T20:33:43;2.15;;;1.30;;
42840;SDS011;28491;46.898;7.660;2023-07-30T20:36:09;2.63;;;1.67;;
42840;SDS011;28491;46.898;7.660;2023-07-30T20:38:36;8.38;;;2.80;;
42840;SDS011;28491;46.898;7.660;2023-07-30T20:41:01;2.90;;;1.80;;
42840;SDS011;28491;46.898;7.660;2023-07-30T20:43:27;2.65;;;1.60;;
42840;SDS011;28491;46.898;7.660;2023-07-30T20:45:52;3.72;;;1.80;;
42840;SDS011;28491;46.898;7.660;2023-07-30T20:48:18;4.80;;;1.95;;
42840;SDS011;28491;46.898;7.660;2023-07-30T20:50:44;2.35;;;1.40;;
42840;SDS011;28491;46.898;7.660;2023-07-30T20:53:09;2.15;;;1.40;;
42840;SDS011;28491;46.898;7.660;2023-07-30T20:55:35;3.28;;;1.48;;
42840;SDS011;28491;46.898;7.660;2023-07-30T20:58:00;3.03;;;1.70;;
42840;SDS011;28491;46.898;7.660;2023-07-30T21:00:26;3.90;;;1.55;;
42840;SDS011;28491;46.898;7.660;2023-07-30T21:02:52;2.78;;;1.30;;
42840;SDS011;28491;46.898;7.660;2023-07-30T21:05:17;1.88;;;1.13;;
42840;SDS011;28491;46.898;7.660;2023-07-30T21:07:43;3.35;;;1.70;;
42840;SDS011;28491;46.898;7.660;2023-07-30T21:10:09;6.63;;;1.80;;
42840;SDS011;28491;46.898;7.660;2023-07-30T21:12:34;5.80;;;2.38;;
42840;SDS011;28491;46.898;7.660;2023-07-30T21:15:04;2.15;;;1.30;;
42840;SDS011;28491;46.898;7.660;2023-07-30T21:17:31;3.97;;;2.03;;
42840;SDS011;28491;46.898;7.660;2023-07-30T21:19:57;3.95;;;1.70;;
42840;SDS011;28491;46.898;7.660;2023-07-30T21:22:22;2.35;;;1.50;;
42840;SDS011;28491;46.898;7.660;2023-07-30T21:24:49;4.28;;;1.65;;
42840;SDS011;28491;46.898;7.660;2023-07-30T21:27:15;6.10;;;1.60;;
42840;SDS011;28491;46.898;7.660;2023-07-30T21:29:41;6.20;;;1.77;;